Flight Track Log - Related Links

Times and Time Zones

All times are in EST time to prevent confusion due to time zone crossing. See the BYA373 flight status page for this flight to view local times or setup timezone preferences in your user account.

Time Position Orientation Groundspeed Altitude Reporting Facility
EST Latitude Longitude Course Direction KTS MPH feet Rate Location/Type
Wed 01:41:13 AM 35.0797 -86.9864 130° Southeast 149 171 6,100  Level Memphis Center
Wed 01:42:13 AM 35.0497 -86.9450 132° Southeast 157 181 8,000 1,750 Climbing Memphis Center
Wed 01:43:13 AM 35.0167 -86.9008 132° Southeast 169 194 9,600 1,650 Climbing Memphis Center
Wed 01:44:13 AM 34.9819 -86.8561 133° Southeast 178 205 11,300 1,388 Climbing Memphis Center
Wed 01:45:14 AM 34.9458 -86.8094 133° Southeast 185 213 12,400 1,041 Climbing Memphis Center
Wed 01:46:14 AM 34.9119 -86.7592 129° Southeast 190 219 13,400 1,000 Climbing Memphis Center
Wed 01:47:14 AM 34.8753 -86.7117 133° Southeast 192 221 14,400 900 Climbing Memphis Center
Wed 01:48:14 AM 34.8294 -86.6681 142° Southeast 205 236 15,200 793 Climbing Memphis Center
Wed 01:49:15 AM 34.7772 -86.6331 151° Southeast 213 245 16,000 843 Climbing Memphis Center
Wed 01:50:15 AM 34.7264 -86.5858 143° Southeast 223 257 16,900 700 Climbing Memphis Center
Wed 01:51:15 AM 34.6764 -86.5367 141° Southeast 230 265 17,400 50 Climbing Memphis Center
Wed 01:52:15 AM 34.6181 -86.4903 147° Southeast 244 281 17,000 -261 Descending Memphis Center
Wed 01:52:47 AM 34.5883 -86.4686 149° Southeast 253 291 17,000  Level Atlanta Center
Wed 01:53:47 AM 34.5244 -86.4264 151° Southeast 265 305 17,000  Level Atlanta Center
Wed 01:54:47 AM 34.4564 -86.3867 154° Southeast 270 311 17,000 50 Level Atlanta Center
Wed 01:55:47 AM 34.3925 -86.3522 156° South 264 304 17,100 50 Climbing Atlanta Center
Wed 01:56:47 AM 34.3286 -86.3053 149° Southeast 264 304 17,100  Level Atlanta Center
Wed 01:57:47 AM 34.2647 -86.2581 149° Southeast 259 298 17,100 -50 Level Atlanta Center
Wed 01:58:47 AM 34.2008 -86.2214 155° Southeast 264 304 17,000  Descending Atlanta Center
Wed 01:59:47 AM 34.1344 -86.1894 158° South 258 297 17,100 50 Climbing Atlanta Center
Wed 02:00:47 AM 34.0725 -86.1453 149° Southeast 253 291 17,100  Level Atlanta Center
Wed 02:01:47 AM 34.0194 -86.0864 137° Southeast 260 299 17,100 -50 Level Atlanta Center
Wed 02:02:47 AM 33.9769 -86.0053 122° Southeast 273 314 17,000  Descending Atlanta Center
Wed 02:03:47 AM 33.9278 -85.9364 131° Southeast 273 314 17,100  Climbing Atlanta Center
Wed 02:04:47 AM 33.8744 -85.8703 134° Southeast 268 308 17,000  Descending Atlanta Center
Wed 02:05:47 AM 33.8192 -85.8117 139° Southeast 268 308 17,100 -300 Climbing Atlanta Center
Wed 02:06:47 AM 33.7614 -85.7503 139° Southeast 274 315 16,400 -900 Descending Atlanta Center
Wed 02:07:47 AM 33.6997 -85.6917 142° Southeast 290 334 15,300 -1,150 Descending Atlanta Center
Wed 02:08:47 AM 33.6336 -85.6406 147° Southeast 288 331 14,100 -1,100 Descending Atlanta Center
Wed 02:09:47 AM 33.5717 -85.5922 147° Southeast 274 315 13,100 -950 Descending Atlanta Center
Wed 02:10:47 AM 33.5011 -85.5411 149° Southeast 268 308 12,200 -850 Descending Atlanta Center
Wed 02:11:47 AM 33.4392 -85.5000 151° Southeast 263 303 11,400 -850 Descending Atlanta Center
Wed 02:12:47 AM 33.3811 -85.4569 148° Southeast 263 303 10,500 -900 Descending Atlanta Center
Wed 02:13:47 AM 33.3231 -85.4186 151° Southeast 246 283 9,600 -1,050 Descending Atlanta Center
Wed 02:14:47 AM 33.2631 -85.3803 152° Southeast 246 283 8,400 -1,350 Descending Atlanta Center
Wed 02:15:47 AM 33.2031 -85.3322 146° Southeast 246 283 6,900 -1,350 Descending Atlanta Center
Wed 02:16:47 AM 33.1450 -85.2867 147° Southeast 251 289 5,700 -950 Descending Atlanta Center
Wed 02:17:47 AM 33.0956 -85.2389 141° Southeast 246 283 5,000 -700 Descending Atlanta Center
Wed 02:18:47 AM 33.0458 -85.1886 140° Southeast 233 268 4,300 -650 Descending Atlanta Center
Wed 02:19:47 AM 33.0172 -85.1289 120° Southeast 220 253 3,700 -350 Descending Atlanta Center
Wed 02:20:47 AM 32.9861 -85.0814 128° Southeast 207 238 3,600 -180 Descending Atlanta Center
Wed 02:24:47 AM 32.9567 -84.8631 99° East 275 316 2,800 -200 Descending Atlanta Center

Login

Don't have an account? Register now (free) for customized features, flight alerts, and more!